N517CF CYQQ-KORL
Flight info
| Callsign | N517CF |
|---|---|
| Flight time | N/A |
| Altitude | 41000 |
| Route | NANOO DCT YVR J52 GEG J136 BIL J151 OVR J41 LUKKY Q116 GOOGY J41 LOBBS Q116 MICES DCT BITTE JAFAR3 |
| Aircraft | C750/M-SBDE3FGHRWXY/S |
Departure
| Time | 2026-05-04 17:53 |
|---|---|
| Airport | Comox Valley International Airport / CFB Comox (CYQQ) |
Arrival
| Time | N/A |
|---|---|
| Airport | Orlando Executive Airport (KORL) |
| Time | Latitude | Longitude | Altitude | Speed | Heading |
|---|---|---|---|---|---|
| 2026-05-04 17:29 | 49.71627 | -124.90165 | 86 ft | 0 kts | 268° |
| 2026-05-04 17:45 | 49.71627 | -124.90162 | 86 ft | 1 kts | 268° |
| 2026-05-04 17:45 | 49.71628 | -124.90136 | 86 ft | 3 kts | 268° |
| 2026-05-04 17:45 | 49.71628 | -124.90113 | 86 ft | 2 kts | 269° |
| 2026-05-04 17:45 | 49.71627 | -124.90083 | 86 ft | 3 kts | 283° |
| 2026-05-04 17:46 | 49.71623 | -124.90060 | 87 ft | 0 kts | 297° |
| 2026-05-04 17:47 | 49.71623 | -124.90062 | 86 ft | 1 kts | 289° |
| 2026-05-04 17:48 | 49.71611 | -124.90066 | 88 ft | 5 kts | 169° |
| 2026-05-04 17:48 | 49.71541 | -124.90044 | 86 ft | 12 kts | 177° |
| 2026-05-04 17:48 | 49.71459 | -124.90033 | 87 ft | 11 kts | 168° |
| 2026-05-04 17:48 | 49.71376 | -124.90017 | 84 ft | 14 kts | 179° |
| 2026-05-04 17:49 | 49.71311 | -124.90051 | 81 ft | 0 kts | 204° |
| 2026-05-04 17:49 | 49.71310 | -124.90052 | 83 ft | 1 kts | 204° |
| 2026-05-04 17:49 | 49.71265 | -124.90083 | 83 ft | 12 kts | 204° |
| 2026-05-04 17:49 | 49.71157 | -124.90155 | 80 ft | 22 kts | 202° |
| 2026-05-04 17:50 | 49.71051 | -124.90220 | 72 ft | 0 kts | 200° |
| 2026-05-04 17:50 | 49.71042 | -124.90226 | 71 ft | 5 kts | 204° |
| 2026-05-04 17:50 | 49.70985 | -124.90263 | 75 ft | 12 kts | 201° |
| 2026-05-04 17:50 | 49.70903 | -124.90311 | 69 ft | 12 kts | 205° |
| 2026-05-04 17:51 | 49.70864 | -124.90421 | 72 ft | 12 kts | 250° |
| 2026-05-04 17:51 | 49.70807 | -124.90488 | 70 ft | 11 kts | 199° |
| 2026-05-04 17:51 | 49.70741 | -124.90521 | 72 ft | 8 kts | 169° |
| 2026-05-04 17:51 | 49.70721 | -124.90466 | 74 ft | 8 kts | 85° |
| 2026-05-04 17:52 | 49.70750 | -124.90344 | 69 ft | 17 kts | 70° |
| 2026-05-04 17:52 | 49.70802 | -124.90131 | 75 ft | 20 kts | 72° |
| 2026-05-04 17:52 | 49.70790 | -124.90056 | 72 ft | 5 kts | 65° |
| 2026-05-04 17:52 | 49.70826 | -124.90031 | 71 ft | 26 kts | 22° |
| 2026-05-04 17:53 | 49.71314 | -124.89723 | 84 ft | 120 kts | 22° |
| 2026-05-04 17:53 | 49.72207 | -124.89136 | 350 ft | 144 kts | 22° |
| 2026-05-04 17:53 | 49.73189 | -124.88455 | 632 ft | 169 kts | 22° |
| 2026-05-04 17:53 | 49.74176 | -124.87192 | 734 ft | 206 kts | 54° |
| 2026-05-04 17:54 | 49.74576 | -124.84984 | 1205 ft | 219 kts | 89° |
| 2026-05-04 17:54 | 49.74106 | -124.82768 | 1895 ft | 223 kts | 124° |
| 2026-05-04 17:54 | 49.72898 | -124.81286 | 2575 ft | 223 kts | 150° |
| 2026-05-04 17:54 | 49.71517 | -124.80149 | 3200 ft | 234 kts | 152° |
| 2026-05-04 17:55 | 49.70009 | -124.78917 | 3624 ft | 257 kts | 152° |
| 2026-05-04 17:55 | 49.68380 | -124.77566 | 4258 ft | 269 kts | 151° |
| 2026-05-04 17:55 | 49.66738 | -124.76193 | 5166 ft | 270 kts | 151° |
| 2026-05-04 17:55 | 49.65068 | -124.74805 | 5926 ft | 275 kts | 152° |
| 2026-05-04 17:56 | 49.63364 | -124.73398 | 6682 ft | 280 kts | 152° |
| 2026-05-04 17:56 | 49.61635 | -124.71973 | 7493 ft | 283 kts | 152° |
| 2026-05-04 17:56 | 49.59892 | -124.70527 | 8357 ft | 287 kts | 152° |
| 2026-05-04 17:56 | 49.58153 | -124.68994 | 9157 ft | 291 kts | 144° |
| 2026-05-04 17:57 | 49.56624 | -124.66919 | 9912 ft | 294 kts | 136° |
| 2026-05-04 17:57 | 49.55122 | -124.64706 | 10388 ft | 309 kts | 136° |
| 2026-05-04 17:57 | 49.53478 | -124.62360 | 10458 ft | 335 kts | 137° |
| 2026-05-04 17:57 | 49.51739 | -124.59945 | 11137 ft | 337 kts | 137° |
| 2026-05-04 17:58 | 49.50001 | -124.57502 | 11815 ft | 340 kts | 137° |
| 2026-05-04 17:58 | 49.48250 | -124.55011 | 12409 ft | 345 kts | 136° |
| 2026-05-04 17:58 | 49.46472 | -124.52497 | 13018 ft | 349 kts | 137° |
| 2026-05-04 17:58 | 49.44670 | -124.49970 | 13634 ft | 353 kts | 137° |
| 2026-05-04 17:59 | 49.42846 | -124.47410 | 14205 ft | 357 kts | 137° |
| 2026-05-04 17:59 | 49.41006 | -124.44820 | 14797 ft | 361 kts | 136° |
| 2026-05-04 17:59 | 49.37265 | -124.39570 | 15909 ft | 368 kts | 136° |
| 2026-05-04 18:00 | 49.35364 | -124.36909 | 16490 ft | 372 kts | 136° |
| 2026-05-04 18:00 | 49.33444 | -124.34223 | 17070 ft | 376 kts | 136° |
| 2026-05-04 18:00 | 49.32161 | -124.32429 | 17453 ft | 378 kts | 136° |
| 2026-05-04 18:00 | 49.29538 | -124.28766 | 18253 ft | 384 kts | 136° |
| 2026-05-04 18:01 | 49.28229 | -124.26929 | 18618 ft | 386 kts | 135° |
| 2026-05-04 18:01 | 49.26578 | -124.23698 | 19091 ft | 388 kts | 116° |
| 2026-05-04 18:01 | 49.25418 | -124.18566 | 19946 ft | 386 kts | 102° |
| 2026-05-04 18:02 | 49.24339 | -124.11830 | 20931 ft | 392 kts | 101° |
| 2026-05-04 18:02 | 49.23449 | -124.06516 | 22103 ft | 385 kts | 101° |
| 2026-05-04 18:02 | 49.22990 | -124.03837 | 22462 ft | 388 kts | 101° |
| 2026-05-04 18:02 | 49.22315 | -123.99805 | 22976 ft | 393 kts | 101° |
| 2026-05-04 18:03 | 49.21641 | -123.95736 | 23530 ft | 396 kts | 101° |
| 2026-05-04 18:03 | 49.20952 | -123.91634 | 24076 ft | 400 kts | 101° |
| 2026-05-04 18:03 | 49.20249 | -123.87497 | 24579 ft | 404 kts | 101° |
| 2026-05-04 18:03 | 49.19552 | -123.83377 | 25125 ft | 406 kts | 101° |
| 2026-05-04 18:04 | 49.18835 | -123.79133 | 25667 ft | 409 kts | 100° |
| 2026-05-04 18:04 | 49.18108 | -123.74853 | 26194 ft | 412 kts | 100° |
| 2026-05-04 18:04 | 49.16677 | -123.66457 | 27249 ft | 416 kts | 100° |
| 2026-05-04 18:05 | 49.15939 | -123.62154 | 27723 ft | 419 kts | 100° |
| 2026-05-04 18:05 | 49.15199 | -123.57836 | 28224 ft | 422 kts | 100° |
| 2026-05-04 18:05 | 49.14454 | -123.53491 | 28693 ft | 424 kts | 100° |
| 2026-05-04 18:05 | 49.13701 | -123.49131 | 29147 ft | 426 kts | 100° |
| 2026-05-04 18:06 | 49.12175 | -123.40314 | 30031 ft | 431 kts | 99° |
| 2026-05-04 18:06 | 49.11406 | -123.35882 | 30470 ft | 433 kts | 99° |
| 2026-05-04 18:06 | 49.10633 | -123.31425 | 30908 ft | 436 kts | 99° |
| 2026-05-04 18:07 | 49.09850 | -123.26951 | 31304 ft | 438 kts | 99° |
| 2026-05-04 18:07 | 49.09058 | -123.22453 | 31705 ft | 440 kts | 99° |
| 2026-05-04 18:07 | 49.08262 | -123.17918 | 32095 ft | 443 kts | 99° |
| 2026-05-04 18:07 | 49.07381 | -123.13396 | 32430 ft | 450 kts | 104° |
| 2026-05-04 18:08 | 49.06274 | -123.08942 | 32999 ft | 447 kts | 105° |
| 2026-05-04 18:08 | 49.05192 | -123.04513 | 33540 ft | 444 kts | 104° |
| 2026-05-04 18:08 | 49.04136 | -123.00096 | 34036 ft | 443 kts | 103° |
| 2026-05-04 18:08 | 49.03067 | -122.95699 | 34544 ft | 442 kts | 104° |